Weitchpec, California
Current Conditions -  °F | °C
As of 9:37 AM on Thursday 23 Oct 2014 (Local Time) from KACV Reporting Station
Moderate Rain Moderate Rain  
Wind Chill: 59°   Ceiling: 1400
Heat Index: 59°   Visibility: 0.75mi
Dew Point: 58°   Wind: 7mph
Humidity: 96%   Direction: 230°SW
Pressure: 29.95"   Gusts: NA
Location:  41.4038°N, 123.781°W
Report Text: KACV 231637Z AUTO 23006KT 3/4SM R32/2400VP6000FT RA BR FEW003 OVC014 15/14 A2995 RMK AO2 P0015 T01500144
Loading
Personal Weather Stations






























Interactive Weather Map
Tropical Storm Tracking
New forecast layout! Learn more

10-Day Weather Forecast

Advertisements
Track Severe Weather on mobile